createdAt,value
2023-05-13T00:04:03.593Z,99593.97
2023-05-13T00:14:06.342Z,99598.34
2023-05-13T00:24:07.821Z,99595.59
2023-05-13T00:34:09.237Z,99590.78
2023-05-13T00:44:11.453Z,99595.84
2023-05-13T00:54:14.087Z,99598.44
2023-05-13T01:04:37.325Z,99606.59
2023-05-13T01:14:45.541Z,99598.56
2023-05-13T01:24:46.996Z,99593.28
2023-05-13T01:34:48.385Z,99588.88
2023-05-13T01:44:51.288Z,99579.25
2023-05-13T01:54:52.680Z,99593.16
2023-05-13T02:04:54.070Z,99584.19
2023-05-13T02:14:55.537Z,99587.25
2023-05-13T02:24:57.251Z,99591.59
2023-05-13T02:34:58.638Z,99589.81
2023-05-13T02:45:00.048Z,99581.94
2023-05-13T02:55:02.148Z,99580.66
2023-05-13T03:05:03.882Z,99589.72
2023-05-13T03:15:05.541Z,99594.59
2023-05-13T03:25:07.270Z,99587.50
2023-05-13T03:35:08.744Z,99595.63
2023-05-13T03:45:10.461Z,99595.16
2023-05-13T03:55:11.851Z,99583.16
2023-05-13T04:05:14.108Z,99594.81
2023-05-13T04:15:15.637Z,99592.41
2023-05-13T04:25:17.011Z,99595.66
2023-05-13T04:35:18.389Z,99598.63
2023-05-13T04:45:20.192Z,99613.16
2023-05-13T04:55:22.294Z,99602.97
2023-05-13T05:05:24.182Z,99626.28
2023-05-13T05:15:25.615Z,99635.44
2023-05-13T05:25:27.010Z,99640.78
2023-05-13T05:35:28.399Z,99639.31
2023-05-13T05:45:29.806Z,99648.16
2023-05-13T05:55:34.296Z,99650.44
2023-05-13T06:05:36.135Z,99660.84
2023-05-13T06:15:40.707Z,99660.41
2023-05-13T06:25:42.168Z,99666.66
2023-05-13T06:35:48.084Z,99665.47
2023-05-13T06:45:49.467Z,99677.97
2023-05-13T06:55:51.106Z,99682.66
2023-05-13T07:05:53.628Z,99684.59
2023-05-13T07:15:55.018Z,99690.78
2023-05-13T07:25:56.411Z,99691.03
2023-05-13T07:35:57.856Z,99691.44
2023-05-13T07:45:59.250Z,99687.31
2023-05-13T07:56:00.645Z,99683.25
2023-05-13T08:06:02.018Z,99687.25
2023-05-13T08:16:03.540Z,99668.78
2023-05-13T08:26:04.970Z,99679.16
2023-05-13T08:36:06.807Z,99680.81
2023-05-13T08:46:09.649Z,99675.22
2023-05-13T08:56:11.752Z,99671.13
2023-05-13T09:06:13.144Z,99668.97
2023-05-13T09:16:15.107Z,99679.38
2023-05-13T09:26:29.339Z,99664.69
2023-05-13T09:36:30.710Z,99641.44
2023-05-13T09:46:33.181Z,99627.38
2023-05-13T09:56:35.260Z,99610.91
2023-05-13T10:06:36.702Z,99605.13
2023-05-13T10:16:38.552Z,99601.88
2023-05-13T10:26:41.505Z,99596.16
2023-05-13T10:37:10.641Z,99584.16
2023-05-13T10:47:12.243Z,99570.41
2023-05-13T10:57:13.634Z,99570.13
2023-05-13T11:07:16.451Z,99574.72
2023-05-13T11:17:19.230Z,99596.94
2023-05-13T11:27:20.767Z,99603.81
2023-05-13T11:37:22.139Z,99639.59
2023-05-13T11:47:29.408Z,99635.72
2023-05-13T11:57:33.997Z,99631.22
2023-05-13T12:07:35.630Z,99626.84
2023-05-13T12:17:37.153Z,99628.41
2023-05-13T12:27:38.548Z,99624.25
2023-05-13T12:37:39.984Z,99617.69
2023-05-13T12:47:51.065Z,99640.00
2023-05-13T12:58:02.961Z,99635.28
2023-05-13T13:08:07.240Z,99619.94
2023-05-13T13:18:09.157Z,99597.06
2023-05-13T13:28:11.087Z,99584.56
2023-05-13T13:38:12.842Z,99581.88
2023-05-13T13:48:14.303Z,99581.22
2023-05-13T13:58:15.777Z,99571.41
2023-05-13T14:08:17.235Z,99570.59
2023-05-13T14:18:18.686Z,99600.00
2023-05-13T14:28:20.118Z,99595.69
2023-05-13T14:38:21.506Z,99605.09
2023-05-13T14:48:22.911Z,99603.41
2023-05-13T14:58:24.347Z,99616.00
2023-05-13T15:08:25.759Z,99622.47
2023-05-13T15:18:27.166Z,99630.81
2023-05-13T15:28:29.044Z,99640.38
2023-05-13T15:38:30.493Z,99646.63
2023-05-13T15:48:31.905Z,99621.72
2023-05-13T15:58:33.418Z,99612.16
2023-05-13T16:08:34.858Z,99589.34
2023-05-13T16:18:36.250Z,99576.69
2023-05-13T16:28:37.821Z,99579.44
2023-05-13T16:38:41.167Z,99578.19
2023-05-13T16:48:42.587Z,99568.66
2023-05-13T16:58:43.997Z,99552.44
2023-05-13T17:08:45.429Z,99566.59
2023-05-13T17:18:46.863Z,99581.78
2023-05-13T17:28:48.879Z,99571.59
2023-05-13T17:38:50.429Z,99564.97
2023-05-13T17:48:52.064Z,99577.84
2023-05-13T17:58:53.566Z,99574.53
2023-05-13T18:08:55.007Z,99560.41
2023-05-13T18:18:56.384Z,99556.03
2023-05-13T18:28:57.864Z,99547.94
2023-05-13T18:38:59.296Z,99564.56
2023-05-13T18:49:00.708Z,99574.72
2023-05-13T18:59:02.146Z,99571.22
2023-05-13T19:09:03.656Z,99566.66
2023-05-13T19:19:05.262Z,99571.22
2023-05-13T19:29:06.700Z,99584.53
2023-05-13T19:39:08.145Z,99584.50
2023-05-13T19:49:09.531Z,99600.06
2023-05-13T19:59:10.941Z,99594.47
2023-05-13T20:09:12.482Z,99596.72
2023-05-13T20:19:13.981Z,99603.56
2023-05-13T20:29:16.073Z,99601.84
2023-05-13T20:39:17.459Z,99606.19
2023-05-13T20:49:18.873Z,99611.72
2023-05-13T20:59:20.345Z,99590.78
2023-05-13T21:09:21.768Z,99600.44
2023-05-13T21:19:23.655Z,99589.66
2023-05-13T21:29:25.154Z,99587.91
2023-05-13T21:39:26.649Z,99590.25
2023-05-13T21:49:28.035Z,99598.66
2023-05-13T21:59:29.435Z,99601.97
2023-05-13T22:09:31.124Z,99605.81
2023-05-13T22:19:34.393Z,99600.59
2023-05-13T22:29:35.864Z,99594.66
2023-05-13T22:39:37.547Z,99601.00
2023-05-13T22:49:38.919Z,99600.13
2023-05-13T22:59:40.302Z,99604.81
2023-05-13T23:09:41.941Z,99593.41
2023-05-13T23:19:43.470Z,99584.69
2023-05-13T23:29:44.875Z,99574.75
2023-05-13T23:39:46.269Z,99570.69
2023-05-13T23:49:47.823Z,99560.97
2023-05-13T23:59:49.371Z,99550.44
